メインページ
METAR-TAF:

METAR-TAF

空港 :

フォートマクマレー空港

フォートマクマレー, アルバータ州, カナダ

緯度: 56-39N, 経度: 111-13W, 海抜: 369m

現時点の気象観測

当レポートは26分前の10:00(UTC)に作成
西/南西の風 11kt、最大16ktの突風を伴う
気温 1°C
湿度 59%
気圧 999 hPa
視程: 14.5km
高度24000ftの雲はほとんどない

METAR: CYMM 221000Z AUTO 24011G16KT 9SM FEW240 01/M06 A2949 RMK SLP004

時間: 03:26 (10:26 UTC)

予報

当レポートは3時間48分前の06:38(UTC)に作成
予報は22日の 07時(UTC)から 22日の 19時(UTC)まで有効
西/南西の風 12kt
視程: 10km
晴天

TAF: CYMM 220638Z 2207/2219 24012KT P6SM SKC RMK FCST BASED ON AUTO OBS. NXT FCST BY 221300Z

4,000以上の空港の気象観測と天気予報(METAR報とTAF報)

利用可能な観測所は地図上に黄色い丸と赤い丸で示す。

丸の上にカーソルを重ねると観測所名を参照できる。

次にクリックすると気象観測と天気予報を参照できる。

マップの切り替え:黒色「×」印の緑ボタンをクリックして拡大、「-」印の緑ボタンをクリックして縮小、緑色の三角印をクリックして隣りの地図に切り替え


METAR-TAF: